createdAt,value
2023-02-24T00:15:34.972Z,100
2023-02-24T00:31:17.816Z,100
2023-02-24T00:47:00.531Z,100
2023-02-24T01:02:42.889Z,100
2023-02-24T01:18:25.473Z,100
2023-02-24T01:34:08.069Z,100
2023-02-24T01:49:51.262Z,100
2023-02-24T02:05:34.178Z,100
2023-02-24T02:21:16.473Z,100
2023-02-24T02:36:59.120Z,100
2023-02-24T02:52:41.166Z,99.22
2023-02-24T03:08:23.710Z,96.28
2023-02-24T03:24:06.333Z,91.36
2023-02-24T03:39:49.349Z,91.07
2023-02-24T03:55:31.698Z,91.41
2023-02-24T04:11:13.962Z,92.77
2023-02-24T04:26:56.628Z,92.76
2023-02-24T04:58:22.748Z,91.96
2023-02-24T05:14:05.500Z,91.74
2023-02-24T05:45:31.165Z,89.42
2023-02-24T06:01:13.845Z,90.54
2023-02-24T06:16:56.083Z,90.12
2023-02-24T06:32:39.029Z,88.55
2023-02-24T06:48:21.427Z,86.23
2023-02-24T07:04:04.361Z,85.71
2023-02-24T07:19:47.370Z,81.78
2023-02-24T07:35:29.743Z,79.22
2023-02-24T07:51:12.468Z,76.07
2023-02-24T08:22:37.832Z,75.34
2023-02-24T08:38:20.659Z,75.44
2023-02-24T09:25:29.069Z,73.14
2023-02-24T09:41:12.137Z,72.81
2023-02-24T10:28:19.262Z,70.27
2023-02-24T10:44:02.211Z,69.44
2023-02-24T11:15:27.229Z,72.47
2023-02-24T11:46:53.333Z,92.88
2023-02-24T12:02:35.904Z,98.15
2023-02-24T12:18:18.330Z,100
2023-02-24T12:34:00.580Z,100
2023-02-24T12:49:42.786Z,100
2023-02-24T13:05:25.016Z,100
2023-02-24T13:21:08.125Z,100
2023-02-24T13:36:51.279Z,100
2023-02-24T13:52:33.784Z,100
2023-02-24T14:08:16.892Z,100
2023-02-24T14:23:59.081Z,100
2023-02-24T14:39:42.342Z,100
2023-02-24T14:55:25.073Z,100
2023-02-24T15:11:07.737Z,100
2023-02-24T16:49:12.571Z,100
2023-02-24T17:04:54.930Z,100
2023-02-24T17:20:38.024Z,100
2023-02-24T17:21:25.447Z,100
2023-02-24T17:52:50.873Z,100
2023-02-24T18:08:33.742Z,100
2023-02-24T18:24:16.755Z,100
2023-02-24T18:39:59.906Z,100
2023-02-24T18:55:42.758Z,100
2023-02-24T19:11:24.993Z,100
2023-02-24T19:27:07.853Z,100
2023-02-24T19:42:50.585Z,100
2023-02-24T19:58:33.205Z,100
2023-02-24T20:14:15.423Z,100
2023-02-24T21:01:23.861Z,100
2023-02-24T21:17:06.656Z,100
2023-02-24T21:32:48.907Z,100
2023-02-24T21:48:31.901Z,100
2023-02-24T22:04:14.676Z,100
2023-02-24T22:19:57.415Z,100
2023-02-24T22:35:39.914Z,100
2023-02-24T22:51:22.516Z,100
2023-02-24T23:22:47.356Z,100
2023-02-24T23:38:30.149Z,100
2023-02-24T23:54:26.930Z,100
